Time;durP1;ratioP1;P1;durP2;ratioP2;P2;SDS_P1;SDS_P2;PMS_P1;PMS_P2;Temp;Humidity;BMP_temperature;BMP_pressure;BME280_temperature;BME280_humidity;BME280_pressure;Samples;Min_cycle;Max_cycle;Signal;HPM_P1;HPM_P2
2021/03/28 00:02:12;;;;;;;3.80;1.77;;;7.90;52.40;;;;;;5108435;28;20192;-87
2021/03/28 00:04:46;;;;;;;3.47;1.97;;;7.90;53.30;;;;;;5100685;28;20240;-89
2021/03/28 00:07:14;;;;;;;4.53;2.00;;;7.80;53.10;;;;;;5102664;28;20196;-88
2021/03/28 00:09:45;;;;;;;3.90;1.83;;;7.90;52.20;;;;;;5099417;28;20278;-88
2021/03/28 00:12:30;;;;;;;5.80;1.83;;;7.80;52.60;;;;;;5100446;28;20203;-88
2021/03/28 00:15:04;;;;;;;4.97;1.93;;;7.80;51.90;;;;;;5099965;28;20707;-88
2021/03/28 00:17:40;;;;;;;3.00;1.70;;;7.80;51.50;;;;;;5114998;28;20206;-88
2021/03/28 00:20:29;;;;;;;3.43;1.70;;;7.90;51.40;;;;;;5119517;28;20610;-88
2021/03/28 00:23:14;;;;;;;4.13;1.80;;;7.90;49.90;;;;;;5118747;28;20184;-88
2021/03/28 00:25:48;;;;;;;2.90;1.80;;;7.90;50.70;;;;;;5118151;28;20693;-88
2021/03/28 00:28:31;;;;;;;5.17;2.10;;;8.00;49.70;;;;;;5119163;28;20281;-88
2021/03/28 00:31:32;;;;;;;3.47;1.53;;;7.90;50.20;;;;;;5081643;28;20307;-88
2021/03/28 00:34:09;;;;;;;3.27;1.87;;;7.90;50.60;;;;;;5058447;28;20206;-88
2021/03/28 00:36:42;;;;;;;3.93;1.90;;;7.90;50.00;;;;;;5058042;28;20232;-89
2021/03/28 00:39:11;;;;;;;4.30;2.03;;;7.90;48.90;;;;;;5073552;28;20299;-88
2021/03/28 00:41:58;;;;;;;5.07;1.70;;;7.90;49.60;;;;;;5100696;28;20632;-88
2021/03/28 00:44:25;;;;;;;4.27;2.10;;;7.90;49.20;;;;;;5099272;28;20277;-89
2021/03/28 00:46:58;;;;;;;5.57;1.93;;;7.90;50.10;;;;;;5097963;28;20234;-87
2021/03/28 00:49:30;;;;;;;4.17;1.90;;;7.90;51.60;;;;;;5126729;28;20200;-87
2021/03/28 00:52:00;;;;;;;2.97;1.70;;;7.90;51.30;;;;;;5129575;28;20184;-87
2021/03/28 00:54:38;;;;;;;5.17;2.30;;;7.80;52.20;;;;;;5116166;28;20221;-87
2021/03/28 00:57:17;;;;;;;4.63;1.90;;;7.80;52.30;;;;;;5108609;28;20238;-86
2021/03/28 00:59:56;;;;;;;4.93;1.73;;;7.80;53.00;;;;;;5121152;28;20646;-86
2021/03/28 01:02:28;;;;;;;4.40;2.00;;;7.80;54.30;;;;;;5129870;28;20249;-86
2021/03/28 01:05:29;;;;;;;4.47;1.93;;;7.70;54.00;;;;;;5128932;28;20664;-88
2021/03/28 01:08:05;;;;;;;3.00;1.80;;;7.80;54.00;;;;;;5122286;28;20187;-88
2021/03/28 01:11:10;;;;;;;4.93;1.67;;;7.90;54.30;;;;;;5106677;28;20202;-88
2021/03/28 01:14:17;;;;;;;5.73;2.23;;;7.90;56.20;;;;;;5103317;28;20632;-86
2021/03/28 01:17:12;;;;;;;3.67;1.80;;;7.90;55.70;;;;;;5109344;28;20303;-86
2021/03/28 01:20:10;;;;;;;3.80;2.10;;;7.90;55.40;;;;;;5106969;28;20244;-86
2021/03/28 01:23:03;;;;;;;4.53;1.97;;;7.80;55.50;;;;;;5088799;28;20250;-86
2021/03/28 01:26:07;;;;;;;5.13;2.10;;;7.70;57.60;;;;;;5083972;28;20240;-89
2021/03/28 01:28:46;;;;;;;6.60;2.23;;;7.80;57.70;;;;;;5090581;28;20343;-86
2021/03/28 01:31:23;;;;;;;4.00;2.23;;;7.80;57.60;;;;;;5089062;28;20200;-86
2021/03/28 01:33:54;;;;;;;4.63;1.90;;;7.80;57.70;;;;;;5089145;28;20197;-86
2021/03/28 01:36:26;;;;;;;5.30;1.93;;;7.80;58.30;;;;;;5088634;28;20181;-86
2021/03/28 01:39:01;;;;;;;4.07;2.00;;;7.70;57.90;;;;;;5089784;28;20284;-86
2021/03/28 01:41:32;;;;;;;3.13;2.20;;;7.80;57.80;;;;;;5088897;28;20196;-86
2021/03/28 01:44:04;;;;;;;4.60;2.27;;;7.80;57.20;;;;;;5104943;28;20253;-86
2021/03/28 01:46:42;;;;;;;2.73;2.10;;;7.80;57.10;;;;;;5100613;28;20221;-86
2021/03/28 01:49:16;;;;;;;4.13;1.80;;;7.80;57.20;;;;;;5087622;28;20189;-88
2021/03/28 01:52:05;;;;;;;3.53;2.10;;;7.70;57.80;;;;;;5111990;28;20224;-89
2021/03/28 01:54:51;;;;;;;3.87;2.17;;;7.70;58.50;;;;;;5108158;28;20200;-89
2021/03/28 01:57:25;;;;;;;4.00;2.07;;;7.70;59.50;;;;;;5117379;28;20203;-89
2021/03/28 02:00:20;;;;;;;4.93;2.33;;;7.70;58.30;;;;;;5118224;28;20222;-88
2021/03/28 02:02:57;;;;;;;2.33;1.63;;;7.60;59.40;;;;;;5100434;28;20260;-85
2021/03/28 02:05:45;;;;;;;3.00;2.10;;;7.60;60.60;;;;;;5099778;28;20232;-88
2021/03/28 02:08:19;;;;;;;2.20;1.63;;;7.60;59.20;;;;;;5097416;28;20252;-88
2021/03/28 02:11:10;;;;;;;2.97;1.87;;;7.60;59.80;;;;;;5096456;28;20235;-89
2021/03/28 02:13:51;;;;;;;4.87;1.80;;;7.50;59.80;;;;;;5100129;28;20570;-88
2021/03/28 02:16:24;;;;;;;1.73;1.43;;;7.50;59.90;;;;;;5096131;28;20224;-88
2021/03/28 02:19:00;;;;;;;3.50;2.00;;;7.60;59.70;;;;;;5101207;28;20191;-86
2021/03/28 02:21:45;;;;;;;2.50;1.70;;;7.60;59.50;;;;;;5080427;28;20232;-88
2021/03/28 02:24:18;;;;;;;3.67;2.07;;;7.60;59.90;;;;;;5093818;28;20703;-87
2021/03/28 02:26:51;;;;;;;4.03;2.00;;;7.60;59.30;;;;;;5070778;28;20291;-86
2021/03/28 02:29:24;;;;;;;4.50;2.13;;;7.60;59.70;;;;;;5106542;28;20208;-87
2021/03/28 02:32:15;;;;;;;5.93;2.03;;;7.60;59.20;;;;;;5089816;28;20228;-87
2021/03/28 02:38:10;;;;;;;3.97;2.23;;;7.50;59.70;;;;;;5107226;28;20188;-86
2021/03/28 02:40:41;;;;;;;4.00;2.13;;;7.30;60.30;;;;;;5107488;28;20282;-87
2021/03/28 02:43:12;;;;;;;3.67;1.93;;;7.20;61.00;;;;;;5107475;28;20295;-86
2021/03/28 02:45:43;;;;;;;5.17;1.90;;;7.20;61.50;;;;;;5107321;28;20239;-86
2021/03/28 02:48:33;;;;;;;4.37;2.07;;;7.30;61.50;;;;;;5107067;28;20218;-86
2021/03/28 02:51:23;;;;;;;3.67;2.10;;;7.20;61.40;;;;;;5103768;28;20240;-86
2021/03/28 02:54:36;;;;;;;4.13;2.03;;;7.10;61.30;;;;;;5097985;28;20212;-85
2021/03/28 02:57:15;;;;;;;4.77;2.00;;;7.00;62.20;;;;;;5073041;28;20223;-86
2021/03/28 02:59:56;;;;;;;2.90;1.87;;;7.00;63.20;;;;;;5098646;28;20662;-86
2021/03/28 03:02:51;;;;;;;3.20;1.93;;;6.90;63.90;;;;;;5095451;28;20200;-86
2021/03/28 03:05:33;;;;;;;4.37;2.00;;;6.80;65.60;;;;;;5095564;28;20221;-86
2021/03/28 03:08:14;;;;;;;3.00;1.83;;;6.70;65.20;;;;;;5097692;28;20203;-87
2021/03/28 03:11:12;;;;;;;4.70;1.93;;;6.80;64.70;;;;;;5098357;28;20235;-86
2021/03/28 03:14:18;;;;;;;3.10;1.77;;;6.90;64.40;;;;;;5078196;28;20242;-86
2021/03/28 03:17:21;;;;;;;3.07;1.70;;;6.90;64.00;;;;;;5076599;28;20588;-86
2021/03/28 03:20:15;;;;;;;4.87;1.80;;;6.90;63.30;;;;;;5073888;28;20224;-86
2021/03/28 03:23:21;;;;;;;3.70;1.80;;;6.90;63.20;;;;;;5073760;28;20628;-86
2021/03/28 03:26:16;;;;;;;4.63;2.40;;;6.80;64.70;;;;;;5073728;28;20236;-86
2021/03/28 03:29:05;;;;;;;3.03;1.70;;;6.60;64.70;;;;;;5089015;28;20203;-86
2021/03/28 03:31:47;;;;;;;1.97;1.60;;;6.50;67.80;;;;;;5103161;28;20223;-86
2021/03/28 03:34:33;;;;;;;7.30;1.93;;;6.40;68.10;;;;;;5092653;28;20302;-86
2021/03/28 03:37:22;;;;;;;4.30;2.00;;;6.20;67.60;;;;;;5083061;28;20221;-86
2021/03/28 03:40:22;;;;;;;5.57;2.27;;;6.30;70.80;;;;;;5091973;28;20716;-86
2021/03/28 03:43:05;;;;;;;4.00;1.90;;;6.20;71.00;;;;;;5075800;28;20197;-86
2021/03/28 03:46:03;;;;;;;2.77;1.97;;;6.10;70.90;;;;;;5100036;28;20227;-86
2021/03/28 03:48:42;;;;;;;6.70;2.20;;;6.10;70.90;;;;;;5104575;28;20216;-86
2021/03/28 03:51:46;;;;;;;3.70;1.83;;;6.00;70.70;;;;;;5103538;28;20570;-85
2021/03/28 03:54:17;;;;;;;3.93;1.90;;;5.90;70.70;;;;;;5083769;28;20182;-85
2021/03/28 03:56:56;;;;;;;3.00;1.87;;;5.80;71.80;;;;;;5081657;28;20229;-85
2021/03/28 03:59:33;;;;;;;4.47;1.87;;;5.60;73.50;;;;;;5080786;28;20181;-86
2021/03/28 04:02:05;;;;;;;1.87;1.60;;;5.40;73.70;;;;;;5085796;28;20185;-85
2021/03/28 04:04:46;;;;;;;4.43;2.00;;;5.40;76.30;;;;;;5084452;28;20218;-85
2021/03/28 04:07:27;;;;;;;7.13;2.17;;;5.40;75.00;;;;;;5084797;28;20181;-85
2021/03/28 04:10:22;;;;;;;8.03;2.00;;;5.40;73.80;;;;;;5084118;28;20228;-85
2021/03/28 04:13:12;;;;;;;2.60;1.93;;;5.40;73.40;;;;;;5084021;28;20517;-85
2021/03/28 04:15:49;;;;;;;2.20;1.77;;;5.20;74.60;;;;;;5080117;28;20696;-85
2021/03/28 04:18:37;;;;;;;2.67;1.90;;;5.20;75.70;;;;;;5089683;28;20549;-85
2021/03/28 04:21:17;;;;;;;4.40;2.30;;;5.10;76.10;;;;;;5104553;28;20616;-83
2021/03/28 04:24:00;;;;;;;2.97;1.83;;;5.10;75.80;;;;;;5088282;28;20525;-82
2021/03/28 04:26:38;;;;;;;3.73;1.90;;;5.10;75.80;;;;;;5086066;28;20228;-84
2021/03/28 04:29:07;;;;;;;4.27;2.00;;;5.00;76.20;;;;;;5086565;28;20193;-84
2021/03/28 04:32:07;;;;;;;3.30;1.80;;;4.90;77.00;;;;;;5082761;28;20227;-83
2021/03/28 04:34:47;;;;;;;3.00;1.97;;;5.00;77.00;;;;;;5084175;28;20219;-84
2021/03/28 04:37:29;;;;;;;3.67;1.80;;;5.10;76.30;;;;;;5099130;28;20207;-83
2021/03/28 04:40:18;;;;;;;9.23;1.80;;;5.00;76.90;;;;;;5085021;28;20300;-84
2021/03/28 04:43:17;;;;;;;4.43;2.00;;;5.00;77.60;;;;;;5083316;28;20212;-84
2021/03/28 04:46:20;;;;;;;4.87;1.83;;;5.00;76.50;;;;;;5070914;28;20719;-84
2021/03/28 04:48:59;;;;;;;3.60;1.83;;;4.90;77.10;;;;;;5118265;28;20203;-83
2021/03/28 04:52:11;;;;;;;2.97;1.90;;;4.80;77.20;;;;;;5119830;28;20577;-84
2021/03/28 04:55:17;;;;;;;4.63;2.10;;;4.60;77.70;;;;;;5099658;28;20197;-84
2021/03/28 04:58:04;;;;;;;4.57;2.53;;;4.40;79.20;;;;;;5057703;28;20548;-84
2021/03/28 05:01:11;;;;;;;5.50;1.90;;;4.40;79.10;;;;;;5099033;28;20705;-83
2021/03/28 05:04:18;;;;;;;3.73;1.80;;;4.40;79.20;;;;;;5106177;28;20200;-84
2021/03/28 05:07:29;;;;;;;2.83;1.80;;;4.50;79.40;;;;;;5103455;28;20250;-83
2021/03/28 05:10:28;;;;;;;4.63;1.87;;;4.60;78.90;;;;;;5106485;28;20221;-84
2021/03/28 05:13:40;;;;;;;4.40;1.90;;;4.70;78.50;;;;;;5105126;28;20196;-84
2021/03/28 05:16:48;;;;;;;3.63;1.80;;;4.70;77.80;;;;;;5043278;28;20233;-83
2021/03/28 05:19:43;;;;;;;2.27;1.80;;;4.70;77.70;;;;;;5106181;28;20195;-83
2021/03/28 05:22:49;;;;;;;2.43;1.60;;;4.70;79.00;;;;;;5085340;28;20228;-83
2021/03/28 05:25:45;;;;;;;3.40;1.73;;;4.70;78.00;;;;;;5093726;28;20576;-83
2021/03/28 05:28:45;;;;;;;6.07;2.27;;;4.60;78.70;;;;;;5102917;28;20200;-83
2021/03/28 05:31:48;;;;;;;5.37;2.53;;;4.70;79.60;;;;;;5101393;28;20726;-84
2021/03/28 05:34:52;;;;;;;4.10;1.90;;;4.80;78.50;;;;;;5123986;28;20202;-83
2021/03/28 05:37:53;;;;;;;6.80;2.23;;;5.00;77.80;;;;;;5090232;28;20212;-83
2021/03/28 05:40:38;;;;;;;4.47;2.10;;;5.20;77.90;;;;;;5099069;28;20228;-84
2021/03/28 05:43:43;;;;;;;2.70;2.00;;;5.40;77.10;;;;;;5112415;28;20210;-83
2021/03/28 05:46:24;;;;;;;4.93;2.20;;;5.60;77.00;;;;;;5116104;28;20231;-83
2021/03/28 05:49:11;;;;;;;2.30;1.80;;;5.80;76.40;;;;;;5118191;28;20195;-83
2021/03/28 05:52:15;;;;;;;5.17;2.10;;;5.90;74.90;;;;;;5117823;28;20227;-85
2021/03/28 05:55:12;;;;;;;3.97;2.20;;;6.00;74.00;;;;;;5104052;28;20224;-84
2021/03/28 05:58:12;;;;;;;4.00;2.30;;;6.10;72.80;;;;;;5100537;28;20200;-86
2021/03/28 06:00:51;;;;;;;3.37;3.03;;;6.20;71.00;;;;;;5078554;28;20232;-86
2021/03/28 06:04:08;;;;;;;5.03;1.90;;;6.40;72.60;;;;;;5098816;28;20191;-86
2021/03/28 06:07:14;;;;;;;6.93;1.90;;;6.40;71.20;;;;;;5057635;28;20747;-86
2021/03/28 06:10:18;;;;;;;4.50;2.13;;;6.40;70.30;;;;;;5097811;28;20236;-86
2021/03/28 06:13:07;;;;;;;4.50;2.80;;;6.50;67.90;;;;;;5099122;28;20187;-86
2021/03/28 06:16:06;;;;;;;5.90;2.20;;;6.60;71.20;;;;;;5096571;28;20659;-86
2021/03/28 06:19:10;;;;;;;3.27;2.00;;;6.60;68.30;;;;;;5089329;28;20192;-85
2021/03/28 06:22:16;;;;;;;5.43;2.23;;;6.70;66.70;;;;;;5080858;28;20225;-85
2021/03/28 06:25:18;;;;;;;5.93;2.27;;;6.70;66.80;;;;;;5081966;28;20225;-85
2021/03/28 06:28:12;;;;;;;2.77;2.10;;;6.90;67.40;;;;;;5086034;28;20196;-85
2021/03/28 06:31:09;;;;;;;6.17;2.13;;;7.00;65.10;;;;;;5092944;28;20228;-86
2021/03/28 06:34:13;;;;;;;3.00;2.00;;;7.20;64.30;;;;;;5109423;28;20699;-87
2021/03/28 06:37:39;;;;;;;5.70;2.60;;;7.30;63.30;;;;;;5108350;28;20232;-87
2021/03/28 06:40:40;;;;;;;10.70;4.13;;;7.70;61.90;;;;;;5109088;28;20228;-87
2021/03/28 06:43:45;;;;;;;7.47;3.53;;;8.20;58.90;;;;;;5109771;28;20189;-87
2021/03/28 06:49:57;;;;;;;6.13;2.47;;;8.50;58.40;;;;;;5110405;28;20211;-86
2021/03/28 06:52:51;;;;;;;4.27;1.93;;;8.60;54.60;;;;;;5110705;28;20208;-86
2021/03/28 06:56:04;;;;;;;4.20;1.57;;;8.80;54.20;;;;;;5110731;28;20308;-86
2021/03/28 06:58:55;;;;;;;3.07;1.70;;;9.00;52.80;;;;;;5111652;28;20639;-86
2021/03/28 07:02:07;;;;;;;5.68;1.95;;;9.40;51.50;;;;;;5071827;28;20224;-86
2021/03/28 07:05:08;;;;;;;4.75;1.95;;;9.70;48.10;;;;;;5108782;28;20215;-86
2021/03/28 07:07:55;;;;;;;4.47;2.00;;;9.80;48.20;;;;;;5110005;28;20268;-86
2021/03/28 07:10:40;;;;;;;3.30;1.80;;;9.60;51.40;;;;;;5072355;28;20285;-85
2021/03/28 07:13:35;;;;;;;3.03;1.58;;;9.40;52.30;;;;;;5090770;28;20219;-86
2021/03/28 07:26:39;;;;;;;3.83;1.90;;;10.60;43.50;;;;;;5031533;28;20617;-86
2021/03/28 07:29:47;;;;;;;3.67;1.63;;;10.80;42.70;;;;;;5058611;28;20647;-86
2021/03/28 07:36:01;;;;;;;5.53;1.88;;;11.00;41.50;;;;;;5110642;28;20167;-86
2021/03/28 07:45:11;;;;;;;2.83;2.00;;;10.40;43.30;;;;;;5034275;28;20226;-86
2021/03/28 07:48:32;;;;;;;3.60;1.80;;;10.70;41.60;;;;;;5109833;28;20212;-85
2021/03/28 07:54:55;;;;;;;6.47;1.55;;;10.60;41.50;;;;;;5105801;28;20534;-87
2021/03/28 08:00:59;;;;;;;3.42;1.85;;;11.00;41.40;;;;;;5085645;28;20682;-88
2021/03/28 08:04:14;;;;;;;5.60;1.83;;;11.80;41.10;;;;;;5086932;28;20284;-87
2021/03/28 08:06:57;;;;;;;4.38;1.95;;;13.00;37.10;;;;;;5086175;28;20229;-87
2021/03/28 08:13:18;;;;;;;5.38;2.72;;;13.20;36.80;;;;;;5087813;28;20176;-87
2021/03/28 08:19:28;;;;;;;7.78;2.58;;;13.00;36.00;;;;;;5085969;28;20188;-87
2021/03/28 08:25:48;;;;;;;4.80;2.38;;;13.50;35.60;;;;;;5091535;28;20246;-88
2021/03/28 08:31:44;;;;;;;36.65;12.75;;;14.50;31.00;;;;;;5106338;28;20231;-87
2021/03/28 08:34:49;;;;;;;28.92;10.50;;;15.00;31.90;;;;;;5096383;28;20601;-88
2021/03/28 08:37:35;;;;;;;22.60;8.60;;;15.80;29.50;;;;;;5095757;28;20273;-86
2021/03/28 08:40:20;;;;;;;11.77;4.85;;;16.20;28.90;;;;;;5094251;28;20705;-86
2021/03/28 08:43:22;;;;;;;5.78;2.10;;;15.80;28.50;;;;;;5096022;28;20639;-85
2021/03/28 08:46:15;;;;;;;4.75;1.90;;;14.30;27.30;;;;;;5102924;28;20240;-87
2021/03/28 08:48:51;;;;;;;4.50;1.70;;;13.40;31.10;;;;;;5104082;28;20193;-86
2021/03/28 08:58:28;;;;;;;5.07;1.70;;;13.20;33.60;;;;;;5081610;28;20204;-86
2021/03/28 09:04:26;;;;;;;6.13;2.03;;;14.40;30.30;;;;;;5090386;28;20238;-86
2021/03/28 09:07:12;;;;;;;4.47;2.20;;;15.00;28.00;;;;;;5089029;28;20240;-85
2021/03/28 09:09:57;;;;;;;5.10;2.17;;;15.50;28.30;;;;;;5105468;28;20218;-85
2021/03/28 09:16:08;;;;;;;10.25;3.42;;;16.40;26.80;;;;;;5082669;28;20228;-85
2021/03/28 09:18:46;;;;;;;4.15;1.77;;;16.20;25.10;;;;;;5080792;28;20371;-85
2021/03/28 09:28:08;;;;;;;5.97;2.08;;;17.50;24.20;;;;;;5077596;28;20195;-84
2021/03/28 09:30:40;;;;;;;5.47;2.05;;;17.70;24.00;;;;;;5102837;28;20230;-84
2021/03/28 09:33:26;;;;;;;4.28;1.73;;;18.10;24.10;;;;;;5106859;28;20564;-84
2021/03/28 09:36:11;;;;;;;4.90;2.42;;;18.70;22.90;;;;;;5101443;28;20715;-84
2021/03/28 09:39:09;;;;;;;13.25;5.57;;;19.70;20.00;;;;;;5089010;28;20216;-84
2021/03/28 09:42:14;;;;;;;4.47;1.92;;;20.10;19.40;;;;;;5108060;28;20235;-83
2021/03/28 09:45:13;;;;;;;5.45;2.10;;;19.80;20.00;;;;;;5102778;28;20517;-84
2021/03/28 09:47:52;;;;;;;4.80;1.73;;;20.20;22.80;;;;;;5099961;28;20224;-81
2021/03/28 09:50:27;;;;;;;8.52;4.28;;;20.10;21.00;;;;;;5104373;28;20694;-81
2021/03/28 09:53:07;;;;;;;2.05;1.42;;;20.10;19.70;;;;;;5108305;28;20180;-81
2021/03/28 09:55:50;;;;;;;2.50;1.60;;;20.10;20.30;;;;;;5106554;28;20235;-81
2021/03/28 09:58:46;;;;;;;3.47;1.95;;;20.50;18.10;;;;;;5105627;28;20267;-81
2021/03/28 10:01:37;;;;;;;4.50;2.25;;;20.40;19.00;;;;;;5087194;28;20691;-81
2021/03/28 10:04:16;;;;;;;4.43;1.80;;;19.70;19.60;;;;;;5085764;28;20220;-80
2021/03/28 10:06:45;;;;;;;4.20;2.20;;;20.50;19.10;;;;;;5084844;28;20637;-78
2021/03/28 10:09:17;;;;;;;13.32;8.88;;;20.80;18.50;;;;;;5079444;28;20258;-82
2021/03/28 10:11:48;;;;;;;3.65;1.80;;;21.10;17.50;;;;;;5089882;28;20671;-82
2021/03/28 10:14:48;;;;;;;3.42;1.90;;;22.20;16.70;;;;;;5101239;28;20216;-81
2021/03/28 10:17:28;;;;;;;3.65;1.83;;;22.90;15.70;;;;;;5101619;28;20257;-81
2021/03/28 10:20:11;;;;;;;7.50;1.85;;;23.00;17.30;;;;;;5101502;28;20258;-81
2021/03/28 10:22:51;;;;;;;3.90;2.00;;;23.20;16.30;;;;;;5079433;28;20181;-82
2021/03/28 10:25:31;;;;;;;4.60;2.05;;;22.80;15.90;;;;;;5078040;28;20256;-83
2021/03/28 10:28:43;;;;;;;4.68;1.98;;;22.90;15.90;;;;;;5078317;28;20194;-83
2021/03/28 10:31:32;;;;;;;3.75;2.00;;;22.50;16.50;;;;;;5078291;28;20238;-83
2021/03/28 10:34:21;;;;;;;6.78;3.20;;;21.80;17.90;;;;;;5079173;28;20242;-83
2021/03/28 10:37:00;;;;;;;3.90;2.00;;;21.50;17.30;;;;;;5070680;28;20225;-80
2021/03/28 10:39:45;;;;;;;5.28;2.45;;;21.20;18.70;;;;;;5079658;28;20254;-81
2021/03/28 10:42:47;;;;;;;3.65;2.05;;;21.40;19.70;;;;;;5079741;28;20200;-81
2021/03/28 10:45:39;;;;;;;6.35;2.50;;;21.60;17.80;;;;;;5067444;28;20236;-82
2021/03/28 10:48:44;;;;;;;5.35;2.58;;;21.10;18.30;;;;;;5078558;28;20242;-81
2021/03/28 10:51:55;;;;;;;3.75;1.90;;;21.20;16.60;;;;;;5077440;28;20237;-81
2021/03/28 10:55:03;;;;;;;3.05;1.67;;;20.10;19.10;;;;;;5081452;28;20302;-82
2021/03/28 10:58:12;;;;;;;6.88;2.72;;;20.80;18.30;;;;;;5039979;28;20262;-80
2021/03/28 11:01:14;;;;;;;6.15;2.58;;;21.60;19.50;;;;;;5081087;28;20706;-82
2021/03/28 11:04:13;;;;;;;5.28;2.20;;;21.10;18.20;;;;;;5083444;28;20291;-82
2021/03/28 11:06:47;;;;;;;5.07;2.20;;;20.40;20.00;;;;;;5079186;28;20685;-82
2021/03/28 11:09:39;;;;;;;3.95;1.55;;;20.70;19.30;;;;;;5078220;28;20193;-82
2021/03/28 11:12:24;;;;;;;3.95;2.08;;;19.80;21.00;;;;;;5078795;28;20327;-83
2021/03/28 11:15:04;;;;;;;9.50;7.18;;;18.80;21.90;;;;;;5082375;28;20232;-83
2021/03/28 11:17:56;;;;;;;8.07;4.80;;;18.30;22.10;;;;;;5104164;28;20200;-84
2021/03/28 11:20:43;;;;;;;4.63;2.75;;;17.80;23.90;;;;;;5101892;28;20241;-85
2021/03/28 11:23:27;;;;;;;6.07;3.42;;;17.20;22.70;;;;;;5104440;28;20648;-85
2021/03/28 11:26:32;;;;;;;6.75;2.03;;;16.70;27.80;;;;;;5100045;28;20250;-87
2021/03/28 11:29:23;;;;;;;4.93;1.70;;;16.50;23.50;;;;;;5106449;28;20195;-87
2021/03/28 11:32:01;;;;;;;6.38;1.85;;;15.90;25.50;;;;;;5105911;28;20221;-87
2021/03/28 11:34:32;;;;;;;22.83;17.77;;;15.70;27.00;;;;;;5109779;28;20260;-88
2021/03/28 11:37:01;;;;;;;6.00;2.30;;;15.70;29.50;;;;;;5109043;28;20283;-87
2021/03/28 11:39:31;;;;;;;5.22;1.92;;;16.00;28.70;;;;;;5109859;28;20246;-87
2021/03/28 11:42:02;;;;;;;4.95;1.80;;;15.60;28.30;;;;;;5110610;28;20239;-87
2021/03/28 11:44:34;;;;;;;3.25;1.70;;;15.40;28.20;;;;;;5109384;28;20212;-87
2021/03/28 11:47:29;;;;;;;4.63;1.70;;;15.20;28.00;;;;;;5109557;28;20548;-87
2021/03/28 11:50:02;;;;;;;8.45;2.00;;;14.60;27.50;;;;;;5109779;28;20224;-87
2021/03/28 11:55:49;;;;;;;5.65;1.92;;;14.80;27.70;;;;;;5108980;28;20265;-85
2021/03/28 12:02:19;;;;;;;4.70;1.70;;;14.60;27.50;;;;;;5111554;28;20234;-85
2021/03/28 12:04:47;;;;;;;3.65;1.80;;;14.70;27.60;;;;;;5111233;28;20235;-85
2021/03/28 12:07:23;;;;;;;3.38;1.60;;;14.80;27.70;;;;;;5109798;28;20196;-87
2021/03/28 12:10:11;;;;;;;3.72;2.03;;;14.70;27.60;;;;;;5107725;28;20298;-87
2021/03/28 12:12:52;;;;;;;5.22;1.98;;;14.60;27.50;;;;;;5107552;28;20275;-87
2021/03/28 12:15:56;;;;;;;6.00;1.90;;;14.50;27.40;;;;;;5106218;28;20227;-87
2021/03/28 12:18:36;;;;;;;3.10;1.80;;;14.60;27.50;;;;;;5108100;28;20202;-87
2021/03/28 12:21:45;;;;;;;3.90;1.92;;;14.70;27.60;;;;;;5109845;28;20244;-86
2021/03/28 12:24:27;;;;;;;5.25;1.83;;;15.10;28.00;;;;;;5110263;28;20233;-87
2021/03/28 12:29:51;;;;;;;3.85;2.03;;;15.30;28.10;;;;;;5108374;28;20227;-87
2021/03/28 12:35:59;;;;;;;2.78;1.80;;;15.10;28.00;;;;;;5027507;28;20234;-87
2021/03/28 12:39:04;;;;;;;6.45;1.92;;;15.00;27.80;;;;;;5028605;28;20227;-87
2021/03/28 12:41:34;;;;;;;5.22;1.98;;;14.90;27.70;;;;;;5108915;28;20311;-87
2021/03/28 12:44:29;;;;;;;5.13;1.92;;;15.00;27.80;;;;;;5109156;28;20196;-94
2021/03/28 12:47:05;;;;;;;4.68;1.92;;;15.20;28.00;;;;;;5109148;28;20270;-87
2021/03/28 12:49:35;;;;;;;4.05;2.20;;;14.90;27.70;;;;;;5109178;28;20196;-87
2021/03/28 12:52:20;;;;;;;3.40;1.85;;;14.90;27.70;;;;;;5109889;28;20208;-87
2021/03/28 12:55:06;;;;;;;5.35;3.35;;;15.10;27.90;;;;;;5094983;28;20307;-87
2021/03/28 12:57:36;;;;;;;4.22;1.75;;;15.10;28.00;;;;;;5095372;28;20545;-88
2021/03/28 13:00:13;;;;;;;5.07;2.10;;;15.20;28.00;;;;;;5104749;28;20220;-88
2021/03/28 13:02:42;;;;;;;3.67;1.77;;;15.20;28.00;;;;;;5105398;28;20220;-86
2021/03/28 13:08:42;;;;;;;2.95;1.63;;;15.30;28.10;;;;;;5103884;28;20211;-87
2021/03/28 13:11:10;;;;;;;3.65;2.13;;;15.30;28.10;;;;;;5102041;28;20220;-88
2021/03/28 13:13:41;;;;;;;3.60;1.88;;;15.10;26.50;;;;;;5090228;28;20204;-88
2021/03/28 13:32:58;;;;;;;2.40;1.67;;;14.90;27.70;;;;;;5009648;28;20223;-87
2021/03/28 13:35:32;;;;;;;2.80;1.60;;;14.80;27.70;;;;;;5023870;28;20296;-87
2021/03/28 13:38:14;;;;;;;6.38;1.98;;;14.90;27.80;;;;;;5097039;28;20208;-89
2021/03/28 13:40:49;;;;;;;5.50;2.25;;;15.00;27.80;;;;;;5088114;28;20231;-87
2021/03/28 13:43:19;;;;;;;3.85;1.85;;;14.90;27.80;;;;;;5090458;28;20212;-87
2021/03/28 13:45:47;;;;;;;3.60;1.73;;;15.20;28.10;;;;;;5087482;28;20314;-87
2021/03/28 13:48:26;;;;;;;4.50;1.90;;;15.20;25.10;;;;;;5091648;28;20209;-87
2021/03/28 13:50:56;;;;;;;4.00;1.77;;;15.20;26.80;;;;;;5092579;28;20247;-88
2021/03/28 14:00:47;;;;;;;7.97;2.08;;;15.30;27.20;;;;;;5091970;28;20220;-86
2021/03/28 14:06:42;;;;;;;2.85;1.85;;;15.40;28.20;;;;;;5091950;28;20829;-86
2021/03/28 14:09:13;;;;;;;3.97;1.65;;;15.50;25.30;;;;;;5110380;28;20287;-88
2021/03/28 14:18:40;;;;;;;3.97;1.77;;;15.40;26.00;;;;;;5077948;28;20203;-87
2021/03/28 14:21:22;;;;;;;3.30;1.63;;;15.30;25.40;;;;;;5107698;28;20232;-87
2021/03/28 14:23:56;;;;;;;2.78;1.60;;;15.20;24.70;;;;;;5114313;28;20189;-86
2021/03/28 14:26:30;;;;;;;3.95;1.60;;;15.30;24.70;;;;;;5113672;28;20263;-86
2021/03/28 14:28:57;;;;;;;4.20;1.73;;;15.30;24.80;;;;;;5114775;28;20636;-86
2021/03/28 14:31:32;;;;;;;3.03;1.70;;;15.10;23.70;;;;;;5114867;28;20228;-86
2021/03/28 14:34:15;;;;;;;2.88;1.50;;;15.20;24.50;;;;;;5096505;28;20240;-87
2021/03/28 14:37:41;;;;;;;1.77;1.55;;;15.20;24.80;;;;;;5113062;28;20273;-86
2021/03/28 14:40:44;;;;;;;2.25;1.50;;;15.10;24.50;;;;;;5095156;28;20228;-86
2021/03/28 14:43:36;;;;;;;4.40;1.60;;;15.20;24.20;;;;;;5093470;28;20189;-86
2021/03/28 14:46:19;;;;;;;3.95;1.92;;;15.20;24.30;;;;;;5075207;28;20290;-86
2021/03/28 14:48:54;;;;;;;4.50;1.75;;;15.10;25.00;;;;;;5093001;28;20217;-85
2021/03/28 14:51:25;;;;;;;2.58;1.60;;;15.10;25.50;;;;;;5092012;28;20291;-86
2021/03/28 14:53:59;;;;;;;3.20;1.45;;;15.10;25.00;;;;;;5074592;28;20227;-85
2021/03/28 14:56:39;;;;;;;3.90;1.70;;;15.10;25.20;;;;;;5090592;28;20262;-86
2021/03/28 14:59:24;;;;;;;3.25;1.60;;;15.10;24.40;;;;;;5093714;28;20212;-85
2021/03/28 15:02:02;;;;;;;2.65;1.40;;;15.10;25.60;;;;;;5091759;28;20673;-86
2021/03/28 15:05:17;;;;;;;3.70;1.85;;;15.10;25.50;;;;;;5092135;28;20228;-86
2021/03/28 15:07:56;;;;;;;4.28;2.55;;;15.10;24.50;;;;;;5093508;28;20185;-86
2021/03/28 15:10:29;;;;;;;3.03;1.55;;;15.10;25.50;;;;;;5111547;28;20227;-86
2021/03/28 15:13:11;;;;;;;3.40;1.95;;;15.10;24.60;;;;;;5113393;28;20223;-85
2021/03/28 15:15:43;;;;;;;3.85;1.60;;;15.00;25.50;;;;;;5112031;28;20228;-86
2021/03/28 15:18:29;;;;;;;3.25;1.60;;;15.00;25.30;;;;;;5111939;28;20203;-85
2021/03/28 15:20:59;;;;;;;3.28;1.65;;;15.00;25.60;;;;;;5113009;28;20527;-86
2021/03/28 15:23:32;;;;;;;4.97;1.60;;;15.00;24.70;;;;;;5112630;28;20208;-86
2021/03/28 15:26:30;;;;;;;3.33;1.60;;;15.00;25.50;;;;;;5111672;28;20359;-86
2021/03/28 15:29:01;;;;;;;2.45;1.77;;;15.00;24.50;;;;;;5108507;28;20192;-85
2021/03/28 15:31:50;;;;;;;6.53;1.60;;;15.00;24.10;;;;;;5091174;28;20320;-85
2021/03/28 15:34:27;;;;;;;5.18;1.73;;;15.00;23.60;;;;;;5100217;28;20228;-85
2021/03/28 15:37:09;;;;;;;4.07;1.63;;;15.00;25.00;;;;;;5098632;28;20307;-86
2021/03/28 15:39:56;;;;;;;3.58;1.50;;;14.90;23.80;;;;;;5101284;28;20230;-85
2021/03/28 15:42:34;;;;;;;4.68;1.70;;;14.90;24.10;;;;;;5111643;28;20233;-85
2021/03/28 15:45:39;;;;;;;4.00;1.92;;;14.90;25.30;;;;;;5110256;28;20295;-87
2021/03/28 15:48:20;;;;;;;4.93;1.92;;;14.90;25.70;;;;;;5070552;28;20239;-83
2021/03/28 15:51:14;;;;;;;4.18;1.88;;;14.90;24.70;;;;;;5111173;28;20220;-85
2021/03/28 15:54:01;;;;;;;4.43;1.70;;;14.70;26.20;;;;;;5112313;28;20180;-85
2021/03/28 16:03:23;;;;;;;4.68;1.98;;;14.60;25.20;;;;;;5111180;28;20601;-87
2021/03/28 16:05:53;;;;;;;5.32;1.50;;;14.70;24.80;;;;;;5105419;28;20591;-86
2021/03/28 16:08:48;;;;;;;2.72;1.45;;;14.60;26.10;;;;;;5100917;28;20196;-86
2021/03/28 16:11:23;;;;;;;3.22;1.80;;;14.50;26.40;;;;;;5107013;28;20231;-87
2021/03/28 16:14:17;;;;;;;7.13;1.90;;;14.50;26.30;;;;;;5096983;28;20235;-87
2021/03/28 16:16:57;;;;;;;4.07;1.60;;;14.60;24.30;;;;;;5089991;28;20285;-86
2021/03/28 16:19:45;;;;;;;3.17;1.52;;;14.60;25.50;;;;;;5090454;28;20253;-86
2021/03/28 16:26:01;;;;;;;2.85;1.60;;;14.40;26.70;;;;;;5088562;28;20241;-86
2021/03/28 16:28:38;;;;;;;3.78;1.70;;;14.30;25.80;;;;;;5090733;28;20220;-86
2021/03/28 16:31:28;;;;;;;4.82;1.63;;;14.20;27.10;;;;;;5089393;28;20224;-86
2021/03/28 16:34:10;;;;;;;3.67;1.80;;;14.20;27.00;;;;;;5090051;28;20208;-87
2021/03/28 16:40:03;;;;;;;3.15;2.20;;;14.10;27.00;;;;;;5096757;28;20273;-86
2021/03/28 16:42:34;;;;;;;4.80;1.98;;;14.20;26.60;;;;;;5110002;28;20204;-87